Terminal Aerodrome Forecast
Issued by NWS

Home | Current Version | Previous Version | Graphics & Text | Print | Product List | Glossary On
Versions: 1 2 3 4 5 6 7 8 9 10 11 12 13 14 15 16 17
000
FTUS43 KGRB 181700
TAFRHI
TAF
KRHI 181720Z 1818/1918 34006KT P6SM FEW030 SCT110
     FM190000 08004KT P6SM SCT090 BKN250
     FM190400 11004KT P6SM BKN080
     FM191100 12009KT P6SM SCT080 BKN120 WS015/15035KT
     FM191500 15013G18KT P6SM SCT035 BKN090=

USA.gov is the U.S. government's official web portal to all federal, state and local government web resources and services.